sensor_id;sensor_type;location;lat;lon;timestamp;pressure;altitude;pressure_sealevel;temperature;humidity
12219;BME280;6172;42.646;23.344;2023-02-22T00:00:25;94556.06;;;5.52;72.28
12219;BME280;6172;42.646;23.344;2023-02-22T00:03:07;94553.00;;;5.57;71.75
12219;BME280;6172;42.646;23.344;2023-02-22T00:05:35;94557.66;;;5.67;70.54
12219;BME280;6172;42.646;23.344;2023-02-22T00:08:04;94560.72;;;5.76;68.61
12219;BME280;6172;42.646;23.344;2023-02-22T00:10:34;94566.16;;;5.87;67.21
12219;BME280;6172;42.646;23.344;2023-02-22T00:13:04;94568.09;;;5.93;67.00
12219;BME280;6172;42.646;23.344;2023-02-22T00:15:31;94563.44;;;6.01;66.23
12219;BME280;6172;42.646;23.344;2023-02-22T00:17:59;94566.53;;;6.10;65.59
12219;BME280;6172;42.646;23.344;2023-02-22T00:20:27;94557.25;;;6.11;64.71
12219;BME280;6172;42.646;23.344;2023-02-22T00:22:55;94559.16;;;6.21;63.98
12219;BME280;6172;42.646;23.344;2023-02-22T00:25:23;94560.34;;;6.30;62.80
12219;BME280;6172;42.646;23.344;2023-02-22T00:27:51;94560.72;;;6.29;61.81
12219;BME280;6172;42.646;23.344;2023-02-22T00:30:20;94566.09;;;6.32;61.36
12219;BME280;6172;42.646;23.344;2023-02-22T00:32:48;94559.16;;;6.38;61.09
12219;BME280;6172;42.646;23.344;2023-02-22T00:35:17;94545.63;;;6.38;60.74
12219;BME280;6172;42.646;23.344;2023-02-22T00:37:48;94536.34;;;6.53;60.31
12219;BME280;6172;42.646;23.344;2023-02-22T00:40:17;94542.88;;;6.66;58.85
12219;BME280;6172;42.646;23.344;2023-02-22T00:42:45;94544.00;;;6.79;58.30
12219;BME280;6172;42.646;23.344;2023-02-22T00:45:13;94538.97;;;6.74;57.96
12219;BME280;6172;42.646;23.344;2023-02-22T00:47:41;94542.06;;;6.76;59.06
12219;BME280;6172;42.646;23.344;2023-02-22T00:50:09;94538.97;;;6.74;58.95
12219;BME280;6172;42.646;23.344;2023-02-22T00:52:36;94539.34;;;6.76;59.20
12219;BME280;6172;42.646;23.344;2023-02-22T00:55:07;94539.72;;;6.82;58.85
12219;BME280;6172;42.646;23.344;2023-02-22T00:57:35;94527.34;;;6.81;58.28
12219;BME280;6172;42.646;23.344;2023-02-22T01:00:02;94521.91;;;6.88;56.90
12219;BME280;6172;42.646;23.344;2023-02-22T01:02:36;94524.16;;;7.00;56.15
12219;BME280;6172;42.646;23.344;2023-02-22T01:05:03;94519.47;;;7.07;56.12
12219;BME280;6172;42.646;23.344;2023-02-22T01:07:30;94514.06;;;7.07;56.21
12219;BME280;6172;42.646;23.344;2023-02-22T01:09:57;94512.44;;;7.20;55.87
12219;BME280;6172;42.646;23.344;2023-02-22T01:12:25;94513.97;;;7.21;55.82
12219;BME280;6172;42.646;23.344;2023-02-22T01:14:53;94502.78;;;7.19;55.21
12219;BME280;6172;42.646;23.344;2023-02-22T01:17:21;94503.91;;;7.18;55.20
12219;BME280;6172;42.646;23.344;2023-02-22T01:19:49;94497.31;;;7.23;55.45
12219;BME280;6172;42.646;23.344;2023-02-22T01:22:16;94498.44;;;7.25;55.10
12219;BME280;6172;42.646;23.344;2023-02-22T01:24:44;94494.56;;;7.30;54.82
12219;BME280;6172;42.646;23.344;2023-02-22T01:27:11;94483.00;;;7.22;54.92
12219;BME280;6172;42.646;23.344;2023-02-22T01:29:39;94494.59;;;7.26;55.05
12219;BME280;6172;42.646;23.344;2023-02-22T01:32:07;94493.13;;;7.15;56.82
12219;BME280;6172;42.646;23.344;2023-02-22T01:34:36;94498.19;;;7.09;57.49
12219;BME280;6172;42.646;23.344;2023-02-22T01:37:03;94495.66;;;6.67;59.59
12219;BME280;6172;42.646;23.344;2023-02-22T01:39:31;94497.75;;;6.07;62.65
12219;BME280;6172;42.646;23.344;2023-02-22T01:41:58;94496.19;;;6.06;64.23
12219;BME280;6172;42.646;23.344;2023-02-22T01:44:28;94500.47;;;5.90;65.75
12219;BME280;6172;42.646;23.344;2023-02-22T01:47:00;94506.63;;;6.01;66.24
12219;BME280;6172;42.646;23.344;2023-02-22T01:49:32;94507.41;;;6.08;65.60
12219;BME280;6172;42.646;23.344;2023-02-22T01:52:03;94502.75;;;6.05;65.35
12219;BME280;6172;42.646;23.344;2023-02-22T01:54:34;94505.84;;;6.14;65.59
12219;BME280;6172;42.646;23.344;2023-02-22T01:57:05;94511.28;;;6.07;65.75
12219;BME280;6172;42.646;23.344;2023-02-22T01:59:36;94507.44;;;5.94;67.52
12219;BME280;6172;42.646;23.344;2023-02-22T02:02:06;94510.50;;;5.93;67.80
12219;BME280;6172;42.646;23.344;2023-02-22T02:04:33;94510.13;;;5.87;68.21
12219;BME280;6172;42.646;23.344;2023-02-22T02:07:03;94498.16;;;5.88;67.98
12219;BME280;6172;42.646;23.344;2023-02-22T02:09:35;94507.41;;;6.01;67.81
12219;BME280;6172;42.646;23.344;2023-02-22T02:12:07;94505.47;;;5.98;66.90
12219;BME280;6172;42.646;23.344;2023-02-22T02:14:35;94509.34;;;5.97;66.17
12219;BME280;6172;42.646;23.344;2023-02-22T02:17:07;94512.44;;;5.96;67.37
12219;BME280;6172;42.646;23.344;2023-02-22T02:19:40;94508.97;;;5.95;67.33
12219;BME280;6172;42.646;23.344;2023-02-22T02:22:33;94508.97;;;5.88;68.09
12219;BME280;6172;42.646;23.344;2023-02-22T02:28:31;94514.38;;;5.74;69.56
12219;BME280;6172;42.646;23.344;2023-02-22T02:31:21;94519.41;;;5.76;69.74
12219;BME280;6172;42.646;23.344;2023-02-22T02:33:56;94519.03;;;5.45;72.54
12219;BME280;6172;42.646;23.344;2023-02-22T02:36:30;94520.97;;;5.55;72.86
12219;BME280;6172;42.646;23.344;2023-02-22T02:39:05;94522.88;;;5.41;74.19
12219;BME280;6172;42.646;23.344;2023-02-22T02:41:36;94531.72;;;5.41;74.94
12219;BME280;6172;42.646;23.344;2023-02-22T02:44:10;94529.78;;;5.31;75.75
12219;BME280;6172;42.646;23.344;2023-02-22T02:46:45;94529.81;;;5.35;74.98
12219;BME280;6172;42.646;23.344;2023-02-22T02:49:19;94535.22;;;5.42;72.20
12219;BME280;6172;42.646;23.344;2023-02-22T02:51:49;94536.00;;;5.46;71.48
12219;BME280;6172;42.646;23.344;2023-02-22T02:54:18;94531.38;;;5.50;71.84
12219;BME280;6172;42.646;23.344;2023-02-22T02:56:49;94532.53;;;5.52;71.94
12219;BME280;6172;42.646;23.344;2023-02-22T02:59:27;94535.22;;;5.56;71.58
12219;BME280;6172;42.646;23.344;2023-02-22T03:02:04;94536.00;;;5.56;71.02
12219;BME280;6172;42.646;23.344;2023-02-22T03:04:50;94533.72;;;5.65;70.71
12219;BME280;6172;42.646;23.344;2023-02-22T03:07:39;94527.50;;;5.72;70.25
12219;BME280;6172;42.646;23.344;2023-02-22T03:10:34;94529.44;;;5.75;71.08
12219;BME280;6172;42.646;23.344;2023-02-22T03:13:15;94527.53;;;5.68;71.63
12219;BME280;6172;42.646;23.344;2023-02-22T03:15:49;94540.25;;;5.61;71.75
12219;BME280;6172;42.646;23.344;2023-02-22T03:18:23;94538.31;;;5.58;72.67
12219;BME280;6172;42.646;23.344;2023-02-22T03:20:59;94535.22;;;5.42;74.46
12219;BME280;6172;42.646;23.344;2023-02-22T03:23:31;94525.56;;;5.34;75.18
12219;BME280;6172;42.646;23.344;2023-02-22T03:26:03;94533.69;;;5.41;75.11
12219;BME280;6172;42.646;23.344;2023-02-22T03:28:31;94530.22;;;5.37;74.77
12219;BME280;6172;42.646;23.344;2023-02-22T03:31:01;94527.88;;;5.46;74.26
12219;BME280;6172;42.646;23.344;2023-02-22T03:33:33;94525.19;;;5.49;74.22
12219;BME280;6172;42.646;23.344;2023-02-22T03:36:07;94529.84;;;5.52;73.99
12219;BME280;6172;42.646;23.344;2023-02-22T03:38:36;94528.28;;;5.48;74.31
12219;BME280;6172;42.646;23.344;2023-02-22T03:41:07;94529.06;;;5.52;74.11
12219;BME280;6172;42.646;23.344;2023-02-22T03:43:37;94535.25;;;5.70;73.14
12219;BME280;6172;42.646;23.344;2023-02-22T03:46:08;94534.47;;;5.69;72.11
12219;BME280;6172;42.646;23.344;2023-02-22T03:48:41;94525.97;;;5.71;71.79
12219;BME280;6172;42.646;23.344;2023-02-22T03:51:12;94528.28;;;5.62;72.63
12219;BME280;6172;42.646;23.344;2023-02-22T03:53:41;94526.34;;;5.66;74.00
12219;BME280;6172;42.646;23.344;2023-02-22T03:56:13;94529.44;;;5.68;73.13
12219;BME280;6172;42.646;23.344;2023-02-22T03:58:42;94530.22;;;5.65;73.61
12219;BME280;6172;42.646;23.344;2023-02-22T04:01:10;94526.34;;;5.66;73.74
12219;BME280;6172;42.646;23.344;2023-02-22T04:03:38;94516.69;;;5.58;74.41
12219;BME280;6172;42.646;23.344;2023-02-22T04:06:07;94522.88;;;5.69;74.47
12219;BME280;6172;42.646;23.344;2023-02-22T04:08:35;94512.06;;;5.55;74.80
12219;BME280;6172;42.646;23.344;2023-02-22T04:11:03;94524.81;;;5.58;75.57
12219;BME280;6172;42.646;23.344;2023-02-22T04:13:30;94519.00;;;5.56;74.03
12219;BME280;6172;42.646;23.344;2023-02-22T04:15:57;94510.53;;;5.68;70.10
12219;BME280;6172;42.646;23.344;2023-02-22T04:18:24;94521.34;;;5.68;72.58
12219;BME280;6172;42.646;23.344;2023-02-22T04:20:51;94525.97;;;5.64;73.39
12219;BME280;6172;42.646;23.344;2023-02-22T04:23:19;94508.22;;;5.52;75.29
12219;BME280;6172;42.646;23.344;2023-02-22T04:25:48;94523.66;;;5.48;77.02
12219;BME280;6172;42.646;23.344;2023-02-22T04:28:15;94530.91;;;5.20;80.62
12219;BME280;6172;42.646;23.344;2023-02-22T04:30:42;94530.81;;;4.81;84.96
12219;BME280;6172;42.646;23.344;2023-02-22T04:33:10;94537.78;;;4.93;86.71
12219;BME280;6172;42.646;23.344;2023-02-22T04:35:37;94540.09;;;4.87;87.13
12219;BME280;6172;42.646;23.344;2023-02-22T04:38:04;94541.88;;;4.55;90.43
12219;BME280;6172;42.646;23.344;2023-02-22T04:40:33;94535.16;;;4.18;94.21
12219;BME280;6172;42.646;23.344;2023-02-22T04:43:02;94541.06;;;4.41;93.46
12219;BME280;6172;42.646;23.344;2023-02-22T04:45:29;94537.63;;;4.47;93.12
12219;BME280;6172;42.646;23.344;2023-02-22T04:47:55;94539.63;;;4.61;91.07
12219;BME280;6172;42.646;23.344;2023-02-22T04:50:22;94531.44;;;4.43;93.17
12219;BME280;6172;42.646;23.344;2023-02-22T04:52:49;94534.19;;;4.57;91.97
12219;BME280;6172;42.646;23.344;2023-02-22T04:55:16;94531.91;;;4.63;89.82
12219;BME280;6172;42.646;23.344;2023-02-22T04:57:43;94535.34;;;4.60;89.78
12219;BME280;6172;42.646;23.344;2023-02-22T05:00:15;94530.34;;;4.55;90.41
12219;BME280;6172;42.646;23.344;2023-02-22T05:02:42;94528.09;;;4.71;88.39
12219;BME280;6172;42.646;23.344;2023-02-22T05:05:10;94534.66;;;4.73;87.63
12219;BME280;6172;42.646;23.344;2023-02-22T05:07:38;94536.22;;;4.78;87.51
12219;BME280;6172;42.646;23.344;2023-02-22T05:10:05;94530.66;;;4.39;92.43
12219;BME280;6172;42.646;23.344;2023-02-22T05:12:34;94537.09;;;4.24;93.39
12219;BME280;6172;42.646;23.344;2023-02-22T05:15:01;94545.31;;;4.42;93.74
12219;BME280;6172;42.646;23.344;2023-02-22T05:17:29;94548.69;;;4.25;95.26
12219;BME280;6172;42.646;23.344;2023-02-22T05:19:56;94541.66;;;4.13;95.80
12219;BME280;6172;42.646;23.344;2023-02-22T05:22:22;94553.72;;;3.79;99.13
12219;BME280;6172;42.646;23.344;2023-02-22T05:24:49;94559.56;;;3.85;99.02
12219;BME280;6172;42.646;23.344;2023-02-22T05:27:17;94551.06;;;3.83;99.74
12219;BME280;6172;42.646;23.344;2023-02-22T05:29:45;94560.69;;;3.84;99.28
12219;BME280;6172;42.646;23.344;2023-02-22T05:32:12;94563.78;;;3.86;99.80
12219;BME280;6172;42.646;23.344;2023-02-22T05:34:40;94565.91;;;3.63;100.00
12219;BME280;6172;42.646;23.344;2023-02-22T05:37:07;94574.09;;;3.73;100.00
12219;BME280;6172;42.646;23.344;2023-02-22T05:39:34;94574.31;;;3.58;100.00
12219;BME280;6172;42.646;23.344;2023-02-22T05:42:01;94591.63;;;3.57;100.00
12219;BME280;6172;42.646;23.344;2023-02-22T05:44:28;94585.50;;;3.60;100.00
12219;BME280;6172;42.646;23.344;2023-02-22T05:46:55;94586.66;;;3.59;100.00
12219;BME280;6172;42.646;23.344;2023-02-22T05:49:22;94581.66;;;3.61;100.00
12219;BME280;6172;42.646;23.344;2023-02-22T05:51:50;94581.72;;;3.68;100.00
12219;BME280;6172;42.646;23.344;2023-02-22T05:54:17;94588.38;;;3.77;100.00
12219;BME280;6172;42.646;23.344;2023-02-22T05:56:44;94587.63;;;3.80;100.00
12219;BME280;6172;42.646;23.344;2023-02-22T05:59:11;94592.59;;;3.78;100.00
12219;BME280;6172;42.646;23.344;2023-02-22T06:01:38;94601.41;;;3.72;100.00
12219;BME280;6172;42.646;23.344;2023-02-22T06:04:05;94599.03;;;3.67;100.00
12219;BME280;6172;42.646;23.344;2023-02-22T06:06:32;94599.56;;;3.83;100.00
12219;BME280;6172;42.646;23.344;2023-02-22T06:09:00;94597.03;;;4.04;100.00
12219;BME280;6172;42.646;23.344;2023-02-22T06:11:27;94592.75;;;3.99;100.00
12219;BME280;6172;42.646;23.344;2023-02-22T06:13:54;94597.03;;;4.04;100.00
12219;BME280;6172;42.646;23.344;2023-02-22T06:16:21;94601.47;;;4.26;100.00
12219;BME280;6172;42.646;23.344;2023-02-22T06:18:49;94596.88;;;4.30;98.72
12219;BME280;6172;42.646;23.344;2023-02-22T06:21:16;94606.06;;;4.22;99.17
12219;BME280;6172;42.646;23.344;2023-02-22T06:23:42;94602.69;;;4.35;100.00
12219;BME280;6172;42.646;23.344;2023-02-22T06:26:14;94596.75;;;4.77;100.00
12219;BME280;6172;42.646;23.344;2023-02-22T06:28:42;94591.94;;;5.31;96.77
12219;BME280;6172;42.646;23.344;2023-02-22T06:31:08;94588.16;;;6.06;90.20
12219;BME280;6172;42.646;23.344;2023-02-22T06:33:35;94582.69;;;7.59;75.98
12219;BME280;6172;42.646;23.344;2023-02-22T06:36:03;94571.41;;;9.60;61.52
12219;BME280;6172;42.646;23.344;2023-02-22T06:38:30;94579.38;;;10.50;53.92
12219;BME280;6172;42.646;23.344;2023-02-22T06:40:57;94570.72;;;11.92;48.85
12219;BME280;6172;42.646;23.344;2023-02-22T06:43:25;94571.91;;;12.87;44.93
12219;BME280;6172;42.646;23.344;2023-02-22T06:45:52;94577.72;;;14.12;41.61
12219;BME280;6172;42.646;23.344;2023-02-22T06:48:19;94569.13;;;14.48;39.83
12219;BME280;6172;42.646;23.344;2023-02-22T06:50:46;94557.84;;;14.33;39.18
12219;BME280;6172;42.646;23.344;2023-02-22T06:53:13;94567.41;;;15.22;37.32
12219;BME280;6172;42.646;23.344;2023-02-22T06:55:40;94562.97;;;15.25;36.35
12219;BME280;6172;42.646;23.344;2023-02-22T06:58:09;94566.38;;;14.48;37.35
12219;BME280;6172;42.646;23.344;2023-02-22T07:00:37;94570.91;;;13.79;38.85
12219;BME280;6172;42.646;23.344;2023-02-22T07:03:04;94569.59;;;13.55;38.83
12219;BME280;6172;42.646;23.344;2023-02-22T07:05:31;94572.00;;;13.94;38.49
12219;BME280;6172;42.646;23.344;2023-02-22T07:08:02;94577.25;;;13.76;38.49
12219;BME280;6172;42.646;23.344;2023-02-22T07:10:32;94570.81;;;13.42;38.33
12219;BME280;6172;42.646;23.344;2023-02-22T07:12:59;94569.16;;;13.98;37.62
12219;BME280;6172;42.646;23.344;2023-02-22T07:15:27;94573.78;;;13.60;38.12
12219;BME280;6172;42.646;23.344;2023-02-22T07:17:56;94573.56;;;13.54;37.97
12219;BME280;6172;42.646;23.344;2023-02-22T07:20:24;94576.00;;;13.65;38.09
12219;BME280;6172;42.646;23.344;2023-02-22T07:22:52;94578.41;;;13.63;37.92
12219;BME280;6172;42.646;23.344;2023-02-22T07:25:21;94585.03;;;13.90;37.54
12219;BME280;6172;42.646;23.344;2023-02-22T07:27:48;94580.09;;;14.35;37.10
12219;BME280;6172;42.646;23.344;2023-02-22T07:30:19;94586.56;;;13.79;37.69
12219;BME280;6172;42.646;23.344;2023-02-22T07:32:50;94579.66;;;14.24;36.96
12219;BME280;6172;42.646;23.344;2023-02-22T07:35:21;94586.47;;;14.32;36.98
12219;BME280;6172;42.646;23.344;2023-02-22T07:37:48;94587.00;;;13.90;37.48
12219;BME280;6172;42.646;23.344;2023-02-22T07:40:16;94571.09;;;13.72;37.91
12219;BME280;6172;42.646;23.344;2023-02-22T07:42:54;94574.66;;;13.16;38.12
12219;BME280;6172;42.646;23.344;2023-02-22T07:45:23;94569.19;;;13.16;38.97
12219;BME280;6172;42.646;23.344;2023-02-22T07:47:50;94566.16;;;13.80;37.95
12219;BME280;6172;42.646;23.344;2023-02-22T07:50:20;94561.59;;;13.89;37.67
12219;BME280;6172;42.646;23.344;2023-02-22T07:52:48;94560.81;;;14.26;36.93
12219;BME280;6172;42.646;23.344;2023-02-22T07:55:16;94568.16;;;14.29;36.72
12219;BME280;6172;42.646;23.344;2023-02-22T07:57:44;94570.94;;;14.88;35.85
12219;BME280;6172;42.646;23.344;2023-02-22T08:00:13;94569.44;;;14.50;36.26
12219;BME280;6172;42.646;23.344;2023-02-22T08:02:40;94557.94;;;14.55;36.45
12219;BME280;6172;42.646;23.344;2023-02-22T08:05:09;94562.56;;;14.20;37.28
12219;BME280;6172;42.646;23.344;2023-02-22T08:07:38;94556.09;;;14.27;36.94
12219;BME280;6172;42.646;23.344;2023-02-22T08:10:16;94562.56;;;13.70;37.95
12219;BME280;6172;42.646;23.344;2023-02-22T08:12:44;94552.59;;;14.26;37.51
12219;BME280;6172;42.646;23.344;2023-02-22T08:15:16;94553.25;;;14.18;37.53
12219;BME280;6172;42.646;23.344;2023-02-22T08:17:43;94552.97;;;14.50;36.99
12219;BME280;6172;42.646;23.344;2023-02-22T08:20:10;94546.09;;;14.92;36.31
12219;BME280;6172;42.646;23.344;2023-02-22T08:22:42;94553.16;;;15.15;36.02
12219;BME280;6172;42.646;23.344;2023-02-22T08:25:09;94556.28;;;15.04;35.78
12219;BME280;6172;42.646;23.344;2023-02-22T08:27:36;94554.81;;;15.34;35.87
12219;BME280;6172;42.646;23.344;2023-02-22T08:30:04;94553.09;;;15.70;35.29
12219;BME280;6172;42.646;23.344;2023-02-22T08:32:32;94544.38;;;15.93;34.75
12219;BME280;6172;42.646;23.344;2023-02-22T08:34:59;94551.69;;;15.66;35.34
12219;BME280;6172;42.646;23.344;2023-02-22T08:37:27;94549.13;;;15.71;34.85
12219;BME280;6172;42.646;23.344;2023-02-22T08:39:56;94544.16;;;16.18;34.79
12219;BME280;6172;42.646;23.344;2023-02-22T08:42:23;94535.44;;;16.59;33.90
12219;BME280;6172;42.646;23.344;2023-02-22T08:44:49;94538.03;;;16.63;34.25
12219;BME280;6172;42.646;23.344;2023-02-22T08:47:16;94539.16;;;16.83;33.49
12219;BME280;6172;42.646;23.344;2023-02-22T08:49:43;94525.09;;;16.90;33.66
12219;BME280;6172;42.646;23.344;2023-02-22T08:52:11;94528.91;;;17.65;32.79
12219;BME280;6172;42.646;23.344;2023-02-22T08:54:37;94529.41;;;17.18;33.23
12219;BME280;6172;42.646;23.344;2023-02-22T08:57:06;94524.31;;;17.26;33.36
12219;BME280;6172;42.646;23.344;2023-02-22T08:59:33;94529.06;;;17.62;32.91
12219;BME280;6172;42.646;23.344;2023-02-22T09:02:00;94520.34;;;17.36;33.33
12219;BME280;6172;42.646;23.344;2023-02-22T09:04:27;94520.88;;;17.85;33.33
12219;BME280;6172;42.646;23.344;2023-02-22T09:06:54;94515.59;;;17.64;32.76
12219;BME280;6172;42.646;23.344;2023-02-22T09:09:20;94518.59;;;17.84;32.95
12219;BME280;6172;42.646;23.344;2023-02-22T09:11:47;94512.78;;;17.82;32.92
12219;BME280;6172;42.646;23.344;2023-02-22T09:14:16;94521.44;;;17.98;32.84
12219;BME280;6172;42.646;23.344;2023-02-22T09:16:43;94520.53;;;18.43;31.92
12219;BME280;6172;42.646;23.344;2023-02-22T09:19:12;94513.50;;;18.42;32.45
12219;BME280;6172;42.646;23.344;2023-02-22T09:21:39;94515.00;;;18.43;31.76
12219;BME280;6172;42.646;23.344;2023-02-22T09:24:06;94508.09;;;18.38;32.22
12219;BME280;6172;42.646;23.344;2023-02-22T09:26:34;94503.28;;;18.80;31.31
12219;BME280;6172;42.646;23.344;2023-02-22T09:29:04;94505.84;;;18.84;30.84
12219;BME280;6172;42.646;23.344;2023-02-22T09:31:36;94507.28;;;18.79;31.06
12219;BME280;6172;42.646;23.344;2023-02-22T09:34:04;94502.78;;;18.58;31.26
12219;BME280;6172;42.646;23.344;2023-02-22T09:36:38;94506.41;;;19.35;30.60
12219;BME280;6172;42.646;23.344;2023-02-22T09:39:05;94503.75;;;19.17;30.45
12219;BME280;6172;42.646;23.344;2023-02-22T09:41:35;94506.13;;;19.09;30.45
12219;BME280;6172;42.646;23.344;2023-02-22T09:44:15;94505.44;;;19.38;29.77
12219;BME280;6172;42.646;23.344;2023-02-22T09:46:46;94502.09;;;18.96;30.37
12219;BME280;6172;42.646;23.344;2023-02-22T09:49:20;94506.63;;;19.22;29.98
12219;BME280;6172;42.646;23.344;2023-02-22T09:51:54;94502.19;;;19.25;29.89
12219;BME280;6172;42.646;23.344;2023-02-22T09:54:27;94493.16;;;19.39;29.69
12219;BME280;6172;42.646;23.344;2023-02-22T09:57:01;94489.75;;;19.44;29.11
12219;BME280;6172;42.646;23.344;2023-02-22T09:59:34;94487.53;;;19.48;28.78
12219;BME280;6172;42.646;23.344;2023-02-22T10:02:17;94496.59;;;19.63;28.36
12219;BME280;6172;42.646;23.344;2023-02-22T10:04:51;94491.25;;;19.60;28.43
12219;BME280;6172;42.646;23.344;2023-02-22T10:07:26;94485.66;;;19.54;28.48
12219;BME280;6172;42.646;23.344;2023-02-22T10:09:56;94485.00;;;19.21;28.95
12219;BME280;6172;42.646;23.344;2023-02-22T10:12:39;94480.19;;;19.07;28.63
12219;BME280;6172;42.646;23.344;2023-02-22T10:15:34;94475.16;;;19.58;28.30
12219;BME280;6172;42.646;23.344;2023-02-22T10:18:20;94466.75;;;19.38;29.18
12219;BME280;6172;42.646;23.344;2023-02-22T10:20:55;94471.13;;;19.30;28.99
12219;BME280;6172;42.646;23.344;2023-02-22T10:23:29;94460.66;;;19.34;29.38
12219;BME280;6172;42.646;23.344;2023-02-22T10:26:07;94452.69;;;18.74;30.20
12219;BME280;6172;42.646;23.344;2023-02-22T10:28:42;94443.75;;;19.17;29.76
12219;BME280;6172;42.646;23.344;2023-02-22T10:31:19;94448.22;;;19.15;29.72
12219;BME280;6172;42.646;23.344;2023-02-22T10:33:54;94447.88;;;19.66;29.22
12219;BME280;6172;42.646;23.344;2023-02-22T10:36:23;94432.44;;;19.59;29.37
12219;BME280;6172;42.646;23.344;2023-02-22T10:38:53;94433.38;;;19.56;29.34
12219;BME280;6172;42.646;23.344;2023-02-22T10:41:27;94428.41;;;19.60;29.21
12219;BME280;6172;42.646;23.344;2023-02-22T10:43:54;94421.94;;;20.27;28.37
12219;BME280;6172;42.646;23.344;2023-02-22T10:46:23;94410.94;;;19.83;28.98
12219;BME280;6172;42.646;23.344;2023-02-22T10:48:55;94413.16;;;19.65;29.40
12219;BME280;6172;42.646;23.344;2023-02-22T10:51:24;94409.84;;;19.61;29.36
12219;BME280;6172;42.646;23.344;2023-02-22T10:53:57;94408.00;;;19.87;29.03
12219;BME280;6172;42.646;23.344;2023-02-22T10:56:26;94397.09;;;19.98;28.74
12219;BME280;6172;42.646;23.344;2023-02-22T10:58:54;94398.03;;;19.95;28.43
12219;BME280;6172;42.646;23.344;2023-02-22T11:01:33;94399.81;;;19.78;29.11
12219;BME280;6172;42.646;23.344;2023-02-22T11:04:11;94390.56;;;19.81;28.64
12219;BME280;6172;42.646;23.344;2023-02-22T11:06:40;94400.59;;;19.49;29.22
12219;BME280;6172;42.646;23.344;2023-02-22T11:09:11;94399.34;;;19.50;29.11
12219;BME280;6172;42.646;23.344;2023-02-22T11:11:39;94395.53;;;19.04;29.43
12219;BME280;6172;42.646;23.344;2023-02-22T11:14:08;94381.19;;;19.29;29.35
12219;BME280;6172;42.646;23.344;2023-02-22T11:16:37;94384.69;;;19.59;28.97
12219;BME280;6172;42.646;23.344;2023-02-22T11:19:17;94388.22;;;19.30;28.71
12219;BME280;6172;42.646;23.344;2023-02-22T11:21:48;94382.13;;;19.55;29.00
12219;BME280;6172;42.646;23.344;2023-02-22T11:24:18;94370.09;;;19.73;28.54
12219;BME280;6172;42.646;23.344;2023-02-22T11:26:49;94370.16;;;19.78;28.42
12219;BME280;6172;42.646;23.344;2023-02-22T11:29:19;94367.13;;;19.96;27.66
12219;BME280;6172;42.646;23.344;2023-02-22T11:31:48;94362.66;;;19.99;27.44
12219;BME280;6172;42.646;23.344;2023-02-22T11:34:34;94355.56;;;19.78;27.50
12219;BME280;6172;42.646;23.344;2023-02-22T11:37:16;94354.91;;;19.83;27.37
12219;BME280;6172;42.646;23.344;2023-02-22T11:39:44;94355.28;;;19.76;27.73
12219;BME280;6172;42.646;23.344;2023-02-22T11:42:20;94362.94;;;19.51;28.09
12219;BME280;6172;42.646;23.344;2023-02-22T11:44:50;94346.19;;;19.55;28.45
12219;BME280;6172;42.646;23.344;2023-02-22T11:47:33;94342.63;;;19.69;28.27
12219;BME280;6172;42.646;23.344;2023-02-22T11:50:09;94345.34;;;19.84;27.84
12219;BME280;6172;42.646;23.344;2023-02-22T11:52:41;94341.69;;;19.92;27.64
12219;BME280;6172;42.646;23.344;2023-02-22T11:55:18;94347.56;;;20.14;27.32
12219;BME280;6172;42.646;23.344;2023-02-22T11:57:57;94340.63;;;20.04;27.63
12219;BME280;6172;42.646;23.344;2023-02-22T12:00:38;94337.34;;;19.51;28.22
12219;BME280;6172;42.646;23.344;2023-02-22T12:03:32;94331.25;;;19.47;28.15
12219;BME280;6172;42.646;23.344;2023-02-22T12:06:14;94322.00;;;19.70;27.87
12219;BME280;6172;42.646;23.344;2023-02-22T12:08:54;94324.22;;;19.66;28.14
12219;BME280;6172;42.646;23.344;2023-02-22T12:11:27;94321.78;;;19.88;27.58
12219;BME280;6172;42.646;23.344;2023-02-22T12:14:11;94317.69;;;20.18;26.90
12219;BME280;6172;42.646;23.344;2023-02-22T12:17:01;94310.78;;;19.94;27.11
12219;BME280;6172;42.646;23.344;2023-02-22T12:19:35;94323.56;;;19.71;27.58
12219;BME280;6172;42.646;23.344;2023-02-22T12:22:10;94311.00;;;19.90;27.18
12219;BME280;6172;42.646;23.344;2023-02-22T12:24:41;94313.25;;;19.72;27.47
12219;BME280;6172;42.646;23.344;2023-02-22T12:27:12;94304.72;;;19.90;27.19
12219;BME280;6172;42.646;23.344;2023-02-22T12:29:45;94311.44;;;20.03;27.04
12219;BME280;6172;42.646;23.344;2023-02-22T12:32:16;94297.19;;;19.90;27.01
12219;BME280;6172;42.646;23.344;2023-02-22T12:34:50;94308.91;;;19.85;27.04
12219;BME280;6172;42.646;23.344;2023-02-22T12:37:24;94300.09;;;19.32;27.68
12219;BME280;6172;42.646;23.344;2023-02-22T12:39:58;94308.75;;;19.10;28.05
12219;BME280;6172;42.646;23.344;2023-02-22T12:42:43;94304.38;;;19.33;27.84
12219;BME280;6172;42.646;23.344;2023-02-22T12:45:24;94300.19;;;19.08;27.87
12219;BME280;6172;42.646;23.344;2023-02-22T12:48:01;94299.69;;;19.10;27.97
12219;BME280;6172;42.646;23.344;2023-02-22T12:50:34;94292.28;;;19.30;28.00
12219;BME280;6172;42.646;23.344;2023-02-22T12:53:11;94289.91;;;19.23;28.28
12219;BME280;6172;42.646;23.344;2023-02-22T12:55:43;94297.50;;;19.43;27.69
12219;BME280;6172;42.646;23.344;2023-02-22T12:58:20;94292.59;;;18.89;28.34
12219;BME280;6172;42.646;23.344;2023-02-22T13:00:55;94293.34;;;18.89;28.65
12219;BME280;6172;42.646;23.344;2023-02-22T13:03:30;94290.19;;;18.82;28.46
12219;BME280;6172;42.646;23.344;2023-02-22T13:06:10;94286.56;;;18.76;28.49
12219;BME280;6172;42.646;23.344;2023-02-22T13:08:47;94282.69;;;18.68;28.74
12219;BME280;6172;42.646;23.344;2023-02-22T13:11:22;94283.72;;;18.32;29.41
12219;BME280;6172;42.646;23.344;2023-02-22T13:14:07;94277.91;;;18.16;29.71
12219;BME280;6172;42.646;23.344;2023-02-22T13:16:45;94285.69;;;18.55;29.03
12219;BME280;6172;42.646;23.344;2023-02-22T13:19:25;94276.19;;;18.56;28.81
12219;BME280;6172;42.646;23.344;2023-02-22T13:22:00;94275.16;;;18.83;28.70
12219;BME280;6172;42.646;23.344;2023-02-22T13:24:48;94281.16;;;18.81;28.24
12219;BME280;6172;42.646;23.344;2023-02-22T13:27:24;94276.38;;;18.53;28.45